createdAt,value
2022-10-05T00:01:02.818Z,6.55
2022-10-05T00:03:37.214Z,7.35
2022-10-05T00:06:06.035Z,10.55
2022-10-05T00:08:35.607Z,10.88
2022-10-05T00:11:04.045Z,9.35
2022-10-05T00:13:32.619Z,8.38
2022-10-05T00:16:09.346Z,9.80
2022-10-05T00:18:38.132Z,11.50
2022-10-05T00:21:16.559Z,11.38
2022-10-05T00:23:44.759Z,12.57
2022-10-05T00:26:20.790Z,10.82
2022-10-05T00:28:49.059Z,11.85
2022-10-05T00:31:21.958Z,11.88
2022-10-05T00:33:50.919Z,12.18
2022-10-05T00:36:19.537Z,12.50
2022-10-05T00:38:47.879Z,12.68
2022-10-05T00:41:19.878Z,11.07
2022-10-05T00:44:30.619Z,10.65
2022-10-05T00:47:07.846Z,9.85
2022-10-05T00:49:50.116Z,12.75
2022-10-05T00:52:25.763Z,10.32
2022-10-05T00:55:01.444Z,10.43
2022-10-05T00:57:37.725Z,10.52
2022-10-05T01:00:07.947Z,10.20
2022-10-05T01:02:47.712Z,9.43
2022-10-05T01:05:22.336Z,13.33
2022-10-05T01:07:56.201Z,9.13
2022-10-05T01:10:28.705Z,10.13
2022-10-05T01:13:03.578Z,9.25
2022-10-05T01:15:35.875Z,9.15
2022-10-05T01:18:11.817Z,11.20
2022-10-05T01:20:54.421Z,13.25
2022-10-05T01:23:58.995Z,10.73
2022-10-05T01:26:39.984Z,11.50
2022-10-05T01:29:15.476Z,11.18
2022-10-05T01:31:47.282Z,9.35
2022-10-05T01:34:24.189Z,8.05
2022-10-05T01:36:58.031Z,8.68
2022-10-05T01:39:32.508Z,8.05
2022-10-05T01:42:05.940Z,10.10
2022-10-05T01:44:40.825Z,7.70
2022-10-05T01:47:11.259Z,7.82
2022-10-05T01:49:45.985Z,9.05
2022-10-05T01:52:24.943Z,33.72
2022-10-05T01:55:01.692Z,23.23
2022-10-05T01:57:38.518Z,10.13
2022-10-05T02:00:10.253Z,7.38
2022-10-05T02:02:41.286Z,8.40
2022-10-05T02:05:12.536Z,7.28
2022-10-05T02:07:43.691Z,7.68
2022-10-05T02:10:19.251Z,7.32
2022-10-05T02:12:48.253Z,9.48
2022-10-05T02:15:21.982Z,8.82
2022-10-05T02:17:52.351Z,7.47
2022-10-05T02:20:24.630Z,10.27
2022-10-05T02:22:54.812Z,9.05
2022-10-05T02:25:24.833Z,7.75
2022-10-05T02:27:56.077Z,7.47
2022-10-05T02:30:25.718Z,7.65
2022-10-05T02:32:56.563Z,8.45
2022-10-05T02:35:24.857Z,10.13
2022-10-05T02:38:01.349Z,8.93
2022-10-05T02:40:40.777Z,8.32
2022-10-05T02:43:19.398Z,10.43
2022-10-05T02:45:54.449Z,7.18
2022-10-05T02:48:30.538Z,7.15
2022-10-05T02:51:03.220Z,7.35
2022-10-05T02:53:37.005Z,7.15
2022-10-05T02:56:14.806Z,7.10
2022-10-05T02:58:47.167Z,6.82
2022-10-05T03:01:22.051Z,6.80
2022-10-05T03:03:55.171Z,10.15
2022-10-05T03:06:27.040Z,16.17
2022-10-05T03:09:01.367Z,25.50
2022-10-05T03:11:36.692Z,29.58
2022-10-05T03:14:09.190Z,26.17
2022-10-05T03:16:49.062Z,6.53
2022-10-05T03:19:26.931Z,6.60
2022-10-05T03:22:00.275Z,7.20
2022-10-05T03:24:40.254Z,6.47
2022-10-05T03:27:15.321Z,7.13
2022-10-05T03:29:49.758Z,6.85
2022-10-05T03:32:26.935Z,7.32
2022-10-05T03:34:58.305Z,7.18
2022-10-05T03:37:30.612Z,6.22
2022-10-05T03:40:04.110Z,8.32
2022-10-05T03:42:38.365Z,7.00
2022-10-05T03:45:10.650Z,7.68
2022-10-05T03:47:46.411Z,6.78
2022-10-05T03:50:32.715Z,6.57
2022-10-05T03:53:03.347Z,6.82
2022-10-05T03:58:04.869Z,6.00
2022-10-05T04:00:33.414Z,5.68
2022-10-05T04:03:05.633Z,6.60
2022-10-05T04:05:37.680Z,17.60
2022-10-05T04:08:08.158Z,16.52
2022-10-05T04:10:40.877Z,6.85
2022-10-05T04:13:14.196Z,8.15
2022-10-05T04:15:44.619Z,5.57
2022-10-05T04:18:22.295Z,8.27
2022-10-05T04:20:53.138Z,5.50
2022-10-05T04:23:27.897Z,6.70
2022-10-05T04:25:58.822Z,7.10
2022-10-05T04:28:32.425Z,7.30
2022-10-05T04:31:01.450Z,7.18
2022-10-05T04:33:32.988Z,6.15
2022-10-05T04:36:12.435Z,6.90
2022-10-05T04:38:50.056Z,5.70
2022-10-05T04:41:30.179Z,7.68
2022-10-05T04:44:13.754Z,6.47
2022-10-05T04:47:00.341Z,5.93
2022-10-05T04:49:50.004Z,6.72
2022-10-05T04:52:24.385Z,6.65
2022-10-05T04:55:03.891Z,5.07
2022-10-05T04:57:40.092Z,4.55
2022-10-05T05:00:21.768Z,5.30
2022-10-05T05:03:02.759Z,6.30
2022-10-05T05:05:53.137Z,6.70
2022-10-05T05:08:36.894Z,6.95
2022-10-05T05:11:16.181Z,4.55
2022-10-05T05:14:08.399Z,6.72
2022-10-05T05:16:38.831Z,6.97
2022-10-05T05:19:29.489Z,5.00
2022-10-05T05:22:03.351Z,4.90
2022-10-05T05:24:41.024Z,5.57
2022-10-05T05:27:25.854Z,4.85
2022-10-05T05:30:03.813Z,4.80
2022-10-05T05:32:40.883Z,7.13
2022-10-05T05:35:35.943Z,4.80
2022-10-05T05:38:15.275Z,6.72
2022-10-05T05:40:49.399Z,6.03
2022-10-05T05:43:25.279Z,9.40
2022-10-05T05:45:59.814Z,8.10
2022-10-05T05:48:33.762Z,5.90
2022-10-05T05:51:05.739Z,5.00
2022-10-05T05:53:36.716Z,5.57
2022-10-05T05:56:09.506Z,4.93
2022-10-05T05:58:42.171Z,5.82
2022-10-05T06:01:31.723Z,9.13
2022-10-05T06:04:04.813Z,8.48
2022-10-05T06:06:35.207Z,5.13
2022-10-05T06:09:06.497Z,6.18
2022-10-05T06:11:39.471Z,5.93
2022-10-05T06:14:14.037Z,4.28
2022-10-05T06:16:46.430Z,5.22
2022-10-05T06:19:17.231Z,4.30
2022-10-05T06:21:47.706Z,7.40
2022-10-05T06:24:21.114Z,6.15
2022-10-05T06:27:21.610Z,4.47
2022-10-05T06:30:02.067Z,5.00
2022-10-05T06:32:32.155Z,6.18
2022-10-05T06:35:09.243Z,4.68
2022-10-05T06:37:58.150Z,7.88
2022-10-05T06:40:39.633Z,4.00
2022-10-05T06:43:19.420Z,5.38
2022-10-05T06:45:59.247Z,4.30
2022-10-05T06:48:36.458Z,5.72
2022-10-05T06:51:10.925Z,5.80
2022-10-05T06:53:42.157Z,8.68
2022-10-05T06:56:15.111Z,7.25
2022-10-05T06:58:52.322Z,5.82
2022-10-05T07:01:30.565Z,4.55
2022-10-05T07:04:11.070Z,4.53
2022-10-05T07:06:41.940Z,2.70
2022-10-05T07:09:25.576Z,4.40
2022-10-05T07:12:30.872Z,3.08
2022-10-05T07:15:23.989Z,5.25
2022-10-05T07:18:02.672Z,4.45
2022-10-05T07:20:33.737Z,3.63
2022-10-05T07:23:19.818Z,3.40
2022-10-05T07:25:51.481Z,5.85
2022-10-05T07:28:29.587Z,2.35
2022-10-05T07:31:01.921Z,4.28
2022-10-05T07:33:33.265Z,2.10
2022-10-05T07:36:23.292Z,3.53
2022-10-05T07:38:56.339Z,3.92
2022-10-05T07:41:32.197Z,2.33
2022-10-05T07:44:13.041Z,5.22
2022-10-05T07:46:51.556Z,5.20
2022-10-05T07:49:27.983Z,4.57
2022-10-05T07:51:59.614Z,3.92
2022-10-05T07:54:35.722Z,2.53
2022-10-05T07:57:10.833Z,4.53
2022-10-05T07:59:45.610Z,3.17
2022-10-05T08:02:20.184Z,5.63
2022-10-05T08:04:53.198Z,3.92
2022-10-05T08:07:21.443Z,2.60
2022-10-05T08:09:53.277Z,3.58
2022-10-05T08:12:28.644Z,3.85
2022-10-05T08:14:59.517Z,3.20
2022-10-05T08:17:35.053Z,2.80
2022-10-05T08:20:17.561Z,3.08
2022-10-05T08:22:48.821Z,6.63
2022-10-05T08:25:23.559Z,4.05
2022-10-05T08:27:54.345Z,4.25
2022-10-05T08:30:24.447Z,4.45
2022-10-05T08:32:57.076Z,4.45
2022-10-05T08:35:29.877Z,5.30
2022-10-05T08:37:58.221Z,3.65
2022-10-05T08:40:52.369Z,3.28
2022-10-05T08:43:37.539Z,2.25
2022-10-05T08:46:31.661Z,3.47
2022-10-05T08:49:24.016Z,2.15
2022-10-05T08:52:17.365Z,4.18
2022-10-05T08:55:16.000Z,3.40
2022-10-05T08:58:24.163Z,3.88
2022-10-05T09:00:57.291Z,2.70
2022-10-05T09:03:51.883Z,4.70
2022-10-05T09:06:52.980Z,4.57
2022-10-05T09:09:48.479Z,6.63
2022-10-05T09:12:34.158Z,4.07
2022-10-05T09:15:31.345Z,7.40
2022-10-05T09:18:26.513Z,3.80
2022-10-05T09:20:59.264Z,7.32
2022-10-05T09:23:38.079Z,4.18
2022-10-05T09:26:23.977Z,5.80
2022-10-05T09:29:02.859Z,3.15
2022-10-05T09:31:45.501Z,2.58
2022-10-05T09:34:47.780Z,4.35
2022-10-05T09:37:36.973Z,5.00
2022-10-05T09:40:23.559Z,7.28
2022-10-05T09:43:09.773Z,5.90
2022-10-05T09:46:04.554Z,5.95
2022-10-05T09:49:17.817Z,2.90
2022-10-05T09:52:18.991Z,5.65
2022-10-05T09:55:25.581Z,2.83
2022-10-05T09:58:20.364Z,5.10
2022-10-05T10:01:15.491Z,3.35
2022-10-05T10:04:08.077Z,2.05
2022-10-05T10:07:09.097Z,4.60
2022-10-05T10:09:43.489Z,3.13
2022-10-05T10:12:33.919Z,2.53
2022-10-05T10:18:10.063Z,5.55
2022-10-05T10:20:53.130Z,3.80
2022-10-05T10:23:28.605Z,3.47
2022-10-05T10:26:28.180Z,3.10
2022-10-05T10:29:38.110Z,3.27
2022-10-05T10:32:13.592Z,2.72
2022-10-05T10:35:04.413Z,4.57
2022-10-05T10:38:22.155Z,5.38
2022-10-05T10:41:13.901Z,3.95
2022-10-05T10:43:55.359Z,2.25
2022-10-05T10:46:35.613Z,3.78
2022-10-05T10:52:13.944Z,4.72
2022-10-05T10:55:13.877Z,3.92
2022-10-05T10:57:53.381Z,3.95
2022-10-05T11:00:30.042Z,2.30
2022-10-05T11:03:33.301Z,2.53
2022-10-05T11:06:27.378Z,4.32
2022-10-05T11:09:19.869Z,2.90
2022-10-05T11:12:23.083Z,2.70
2022-10-05T11:15:13.899Z,5.78
2022-10-05T11:18:02.854Z,2.60
2022-10-05T11:20:48.265Z,2.90
2022-10-05T11:23:38.791Z,1.63
2022-10-05T11:26:23.675Z,2.95
2022-10-05T11:29:21.017Z,1.90
2022-10-05T11:32:23.414Z,3.03
2022-10-05T11:35:39.355Z,4.80
2022-10-05T11:38:27.213Z,2.38
2022-10-05T11:41:24.482Z,2.42
2022-10-05T11:44:29.692Z,1.88
2022-10-05T11:47:01.581Z,4.03
2022-10-05T11:49:36.841Z,2.00
2022-10-05T11:52:12.598Z,1.95
2022-10-05T11:55:11.945Z,2.17
2022-10-05T11:57:47.451Z,6.07
2022-10-05T12:00:18.776Z,1.83
2022-10-05T12:03:12.402Z,3.97
2022-10-05T12:05:50.890Z,3.58
2022-10-05T12:08:29.213Z,2.03
2022-10-05T12:11:10.048Z,3.13
2022-10-05T12:13:42.034Z,2.63
2022-10-05T12:16:14.365Z,1.77
2022-10-05T12:18:47.982Z,3.00
2022-10-05T12:21:24.325Z,1.77
2022-10-05T12:23:54.980Z,1.92
2022-10-05T12:26:27.422Z,2.95
2022-10-05T12:29:00.134Z,2.30
2022-10-05T12:31:38.609Z,1.63
2022-10-05T12:34:13.181Z,3.92
2022-10-05T12:37:03.466Z,3.10
2022-10-05T12:39:40.129Z,2.40
2022-10-05T12:42:19.648Z,2.30
2022-10-05T12:45:04.513Z,2.28
2022-10-05T12:47:38.944Z,2.20
2022-10-05T12:50:21.086Z,1.70
2022-10-05T12:53:01.827Z,2.55
2022-10-05T12:55:34.911Z,4.15
2022-10-05T12:58:17.011Z,2.00
2022-10-05T13:00:51.756Z,1.90
2022-10-05T13:03:26.472Z,2.00
2022-10-05T13:06:04.355Z,3.50
2022-10-05T13:08:38.043Z,2.40
2022-10-05T13:11:14.850Z,2.35
2022-10-05T13:13:50.710Z,3.25
2022-10-05T13:16:26.374Z,3.83
2022-10-05T13:19:03.614Z,8.43
2022-10-05T13:21:47.287Z,3.05
2022-10-05T13:24:19.444Z,1.90
2022-10-05T13:26:50.669Z,1.25
2022-10-05T13:29:27.043Z,3.38
2022-10-05T13:31:57.526Z,2.47
2022-10-05T13:34:30.472Z,2.78
2022-10-05T13:37:06.965Z,2.42
2022-10-05T13:39:46.698Z,3.33
2022-10-05T13:42:17.382Z,2.28
2022-10-05T13:44:51.221Z,1.73
2022-10-05T13:47:26.692Z,2.38
2022-10-05T13:49:57.866Z,2.25
2022-10-05T13:52:32.123Z,2.33
2022-10-05T13:55:06.623Z,1.98
2022-10-05T13:57:46.059Z,4.32
2022-10-05T14:00:22.604Z,4.50
2022-10-05T14:02:57.012Z,3.00
2022-10-05T14:05:26.938Z,1.40
2022-10-05T14:07:57.066Z,3.70
2022-10-05T14:10:38.265Z,2.85
2022-10-05T14:13:22.422Z,2.38
2022-10-05T14:16:04.531Z,2.38
2022-10-05T14:18:34.548Z,6.80
2022-10-05T14:21:05.672Z,2.33
2022-10-05T14:23:34.719Z,3.72
2022-10-05T14:26:04.553Z,2.05
2022-10-05T14:28:34.605Z,2.47
2022-10-05T14:31:13.300Z,2.55
2022-10-05T14:33:42.210Z,1.70
2022-10-05T14:36:13.323Z,1.63
2022-10-05T14:38:53.080Z,1.70
2022-10-05T14:41:24.903Z,4.68
2022-10-05T14:43:56.058Z,5.18
2022-10-05T14:46:29.115Z,1.40
2022-10-05T14:49:14.332Z,3.08
2022-10-05T14:51:43.211Z,2.80
2022-10-05T14:54:27.435Z,2.88
2022-10-05T14:57:02.426Z,2.58
2022-10-05T15:00:00.580Z,3.60
2022-10-05T15:02:47.933Z,1.70
2022-10-05T15:05:18.789Z,1.52
2022-10-05T15:07:50.206Z,3.72
2022-10-05T15:10:36.124Z,2.63
2022-10-05T15:13:11.803Z,2.15
2022-10-05T15:15:44.909Z,2.35
2022-10-05T15:18:30.974Z,3.05
2022-10-05T15:21:13.457Z,2.70
2022-10-05T15:23:47.322Z,3.58
2022-10-05T15:26:26.786Z,2.22
2022-10-05T15:28:57.616Z,3.97
2022-10-05T15:31:31.770Z,1.85
2022-10-05T15:34:04.528Z,1.75
2022-10-05T15:36:36.619Z,1.77
2022-10-05T15:39:10.585Z,2.47
2022-10-05T15:41:58.845Z,1.77
2022-10-05T15:44:41.693Z,2.42
2022-10-05T15:47:18.041Z,2.50
2022-10-05T15:49:57.245Z,2.05
2022-10-05T15:52:28.712Z,4.28
2022-10-05T15:55:22.149Z,2.47
2022-10-05T15:57:55.717Z,3.72
2022-10-05T16:00:25.426Z,3.70
2022-10-05T16:02:59.206Z,4.07
2022-10-05T16:05:53.718Z,2.17
2022-10-05T16:08:55.017Z,2.47
2022-10-05T16:11:38.664Z,2.75
2022-10-05T16:14:18.291Z,3.67
2022-10-05T16:16:54.320Z,3.30
2022-10-05T16:19:26.885Z,2.78
2022-10-05T16:22:03.672Z,2.60
2022-10-05T16:24:51.671Z,1.60
2022-10-05T16:27:24.644Z,3.35
2022-10-05T16:30:00.868Z,3.70
2022-10-05T16:32:33.638Z,5.07
2022-10-05T16:35:14.569Z,2.72
2022-10-05T16:37:50.535Z,3.22
2022-10-05T16:40:28.377Z,3.88
2022-10-05T16:43:04.040Z,3.20
2022-10-05T16:45:46.008Z,3.42
2022-10-05T16:48:22.112Z,7.97
2022-10-05T16:50:58.988Z,4.95
2022-10-05T16:53:31.813Z,3.85
2022-10-05T16:56:03.269Z,4.22
2022-10-05T16:58:42.329Z,2.67
2022-10-05T17:01:17.668Z,3.88
2022-10-05T17:03:55.060Z,3.40
2022-10-05T17:06:38.102Z,3.55
2022-10-05T17:09:28.506Z,1.48
2022-10-05T17:12:06.675Z,3.90
2022-10-05T17:14:40.837Z,2.67
2022-10-05T17:17:37.473Z,6.85
2022-10-05T17:20:18.970Z,7.07
2022-10-05T17:22:52.294Z,7.68
2022-10-05T17:25:28.682Z,7.47
2022-10-05T17:27:58.497Z,5.13
2022-10-05T17:30:51.457Z,4.05
2022-10-05T17:33:27.464Z,5.82
2022-10-05T17:36:16.922Z,5.25
2022-10-05T17:38:50.714Z,4.75
2022-10-05T17:41:22.705Z,8.25
2022-10-05T17:44:24.552Z,6.47
2022-10-05T17:46:57.569Z,3.80
2022-10-05T17:50:14.284Z,2.55
2022-10-05T17:53:02.459Z,7.53
2022-10-05T17:55:44.273Z,2.97
2022-10-05T17:59:01.289Z,3.83
2022-10-05T18:01:33.917Z,7.68
2022-10-05T18:04:30.400Z,5.88
2022-10-05T18:07:04.733Z,6.20
2022-10-05T18:09:37.699Z,5.82
2022-10-05T18:12:48.810Z,5.68
2022-10-05T18:15:46.089Z,7.55
2022-10-05T18:18:47.946Z,5.15
2022-10-05T18:21:40.397Z,6.85
2022-10-05T18:24:44.243Z,8.90
2022-10-05T18:27:34.237Z,5.50
2022-10-05T18:30:08.724Z,6.43
2022-10-05T18:32:50.976Z,4.03
2022-10-05T18:35:23.027Z,4.55
2022-10-05T18:38:02.871Z,6.38
2022-10-05T18:40:40.807Z,8.52
2022-10-05T18:43:22.210Z,5.72
2022-10-05T18:46:01.406Z,4.15
2022-10-05T18:48:37.275Z,8.57
2022-10-05T18:51:13.884Z,7.60
2022-10-05T18:53:47.046Z,6.05
2022-10-05T18:56:21.777Z,5.85
2022-10-05T18:59:00.395Z,5.55
2022-10-05T19:01:52.282Z,4.97
2022-10-05T19:07:29.015Z,7.38
2022-10-05T19:10:05.980Z,4.10
2022-10-05T19:12:44.263Z,4.07
2022-10-05T19:15:20.389Z,4.07
2022-10-05T19:18:05.486Z,5.93
2022-10-05T19:20:37.541Z,3.83
2022-10-05T19:23:17.933Z,4.03
2022-10-05T19:25:51.507Z,5.75
2022-10-05T19:28:27.342Z,6.03
2022-10-05T19:31:02.828Z,8.40
2022-10-05T19:33:34.655Z,5.47
2022-10-05T19:36:25.640Z,3.35
2022-10-05T19:39:03.359Z,4.47
2022-10-05T19:41:45.300Z,7.13
2022-10-05T19:44:19.365Z,4.65
2022-10-05T19:46:55.554Z,3.85
2022-10-05T19:49:37.565Z,3.00
2022-10-05T19:52:12.955Z,3.35
2022-10-05T19:54:42.627Z,4.25
2022-10-05T19:57:18.093Z,8.77
2022-10-05T19:59:47.748Z,4.68
2022-10-05T20:02:17.575Z,3.30
2022-10-05T20:04:49.609Z,5.78
2022-10-05T20:07:21.510Z,3.78
2022-10-05T20:09:52.946Z,4.50
2022-10-05T20:12:23.616Z,5.75
2022-10-05T20:15:22.677Z,4.20
2022-10-05T20:18:08.527Z,5.05
2022-10-05T20:20:41.636Z,4.07
2022-10-05T20:23:25.332Z,5.22
2022-10-05T20:26:11.400Z,5.47
2022-10-05T20:28:41.048Z,3.00
2022-10-05T20:31:09.498Z,4.00
2022-10-05T20:33:39.051Z,4.43
2022-10-05T20:36:08.619Z,4.47
2022-10-05T20:38:40.876Z,6.50
2022-10-05T20:41:10.147Z,5.70
2022-10-05T20:43:39.384Z,3.63
2022-10-05T20:46:09.131Z,3.88
2022-10-05T20:48:37.395Z,4.97
2022-10-05T20:51:05.797Z,4.60
2022-10-05T20:53:34.699Z,4.47
2022-10-05T20:56:04.424Z,4.18
2022-10-05T20:58:32.664Z,6.50
2022-10-05T21:01:20.063Z,5.00
2022-10-05T21:03:50.595Z,5.72
2022-10-05T21:06:19.016Z,8.15
2022-10-05T21:08:47.366Z,6.95
2022-10-05T21:11:15.777Z,5.15
2022-10-05T21:13:45.662Z,5.47
2022-10-05T21:16:15.566Z,5.20
2022-10-05T21:18:46.780Z,6.65
2022-10-05T21:21:17.627Z,4.53
2022-10-05T21:23:45.933Z,3.90
2022-10-05T21:26:15.041Z,7.72
2022-10-05T21:28:43.559Z,5.32
2022-10-05T21:31:11.925Z,5.93
2022-10-05T21:33:40.182Z,3.63
2022-10-05T21:36:08.502Z,5.10
2022-10-05T21:38:38.091Z,5.70
2022-10-05T21:41:07.674Z,4.13
2022-10-05T21:43:36.053Z,6.65
2022-10-05T21:46:04.432Z,5.65
2022-10-05T21:48:33.621Z,5.20
2022-10-05T21:51:02.623Z,5.30
2022-10-05T21:53:32.979Z,5.22
2022-10-05T21:56:05.498Z,6.00
2022-10-05T21:58:33.769Z,4.90
2022-10-05T22:01:02.042Z,5.65
2022-10-05T22:03:30.441Z,3.65
2022-10-05T22:05:58.743Z,3.35
2022-10-05T22:08:30.010Z,4.57
2022-10-05T22:10:59.173Z,4.57
2022-10-05T22:13:29.194Z,4.05
2022-10-05T22:15:57.756Z,6.25
2022-10-05T22:18:26.971Z,7.45
2022-10-05T22:20:55.490Z,3.78
2022-10-05T22:23:23.707Z,3.53
2022-10-05T22:25:51.968Z,3.22
2022-10-05T22:28:20.323Z,4.15
2022-10-05T22:30:49.921Z,3.92
2022-10-05T22:33:18.151Z,2.97
2022-10-05T22:35:46.689Z,4.20
2022-10-05T22:38:15.026Z,3.75
2022-10-05T22:40:43.257Z,8.80
2022-10-05T22:43:13.118Z,3.90
2022-10-05T22:45:41.454Z,3.85
2022-10-05T22:48:11.116Z,4.03
2022-10-05T22:50:39.662Z,3.67
2022-10-05T22:53:07.976Z,4.07
2022-10-05T22:55:36.204Z,3.22
2022-10-05T22:58:04.441Z,4.93
2022-10-05T23:00:56.339Z,3.53
2022-10-05T23:03:22.895Z,6.47
2022-10-05T23:05:57.361Z,7.07
2022-10-05T23:08:26.225Z,5.10
2022-10-05T23:10:54.731Z,5.93
2022-10-05T23:13:23.449Z,4.75
2022-10-05T23:15:51.692Z,3.65
2022-10-05T23:18:19.906Z,5.45
2022-10-05T23:20:55.346Z,4.65
2022-10-05T23:23:24.047Z,4.65
2022-10-05T23:25:53.015Z,3.70
2022-10-05T23:28:21.652Z,4.75
2022-10-05T23:30:49.939Z,4.47
2022-10-05T23:33:18.233Z,6.45
2022-10-05T23:35:46.474Z,3.45
2022-10-05T23:38:16.176Z,4.22
2022-10-05T23:40:47.444Z,4.20
2022-10-05T23:43:15.922Z,3.85
2022-10-05T23:45:45.643Z,3.97
2022-10-05T23:48:14.412Z,3.63
2022-10-05T23:50:43.983Z,4.15
2022-10-05T23:53:12.493Z,6.45
2022-10-05T23:55:42.672Z,5.80
2022-10-05T23:58:11.964Z,4.00
